Time;durP1;ratioP1;P1;durP2;ratioP2;P2;SDS_P1;SDS_P2;PMS_P1;PMS_P2;Temp;Humidity;BMP_temperature;BMP_pressure;BME280_temperature;BME280_humidity;BME280_pressure;Samples;Min_cycle;Max_cycle;Signal;HPM_P1;HPM_P2
2022/03/01 00:01:41;;;;;;;10.35;5.93;;;;;;;;;;5027493;28;20136;-69
2022/03/01 00:04:08;;;;;;;10.50;6.63;;;;;;;;;;5010345;28;20046;-69
2022/03/01 00:06:35;;;;;;;9.63;5.97;;;;;;;;;;5017949;28;20053;-68
2022/03/01 00:09:03;;;;;;;11.00;6.28;;;;;;;;;;5014509;28;20495;-69
2022/03/01 00:11:32;;;;;;;7.72;4.82;;;;;;;;;;5015212;28;20030;-69
2022/03/01 00:14:00;;;;;;;8.68;6.30;;;;;;;;;;5022273;28;20503;-67
2022/03/01 00:16:27;;;;;;;9.23;6.22;;;;;;;;;;5027699;28;20080;-69
2022/03/01 00:18:55;;;;;;;9.57;5.90;;;;;;;;;;5027441;28;20422;-68
2022/03/01 00:21:22;;;;;;;10.90;6.50;;;;;;;;;;5022665;28;20038;-69
2022/03/01 00:23:50;;;;;;;9.68;6.82;;;;;;;;;;5020597;28;20049;-70
2022/03/01 00:26:17;;;;;;;8.60;6.07;;;;;;;;;;5013709;28;20041;-69
2022/03/01 00:28:44;;;;;;;9.05;4.55;;;;;;;;;;5002462;28;20041;-67
2022/03/01 00:31:12;;;;;;;11.57;6.50;;;;;;;;;;5011915;28;20091;-69
2022/03/01 00:33:40;;;;;;;6.85;5.35;;;;;;;;;;5029132;28;20026;-68
2022/03/01 00:36:07;;;;;;;10.45;5.50;;;;;;;;;;5022923;28;20067;-68
2022/03/01 00:38:34;;;;;;;7.05;5.53;;;;;;;;;;5015637;28;20041;-68
2022/03/01 00:41:02;;;;;;;7.35;5.45;;;;;;;;;;5020086;28;20045;-68
2022/03/01 00:43:29;;;;;;;7.95;6.10;;;;;;;;;;5022041;28;20038;-68
2022/03/01 00:45:57;;;;;;;6.22;4.75;;;;;;;;;;5028133;28;20278;-68
2022/03/01 00:48:24;;;;;;;9.43;5.55;;;;;;;;;;5024953;28;20114;-68
2022/03/01 00:50:52;;;;;;;6.72;5.18;;;;;;;;;;5012802;28;20029;-68
2022/03/01 00:53:19;;;;;;;3.55;3.15;;;;;;;;;;5028951;28;20037;-69
2022/03/01 00:55:46;;;;;;;9.38;3.60;;;;;;;;;;5028466;28;20049;-68
2022/03/01 00:58:14;;;;;;;10.75;6.20;;;;;;;;;;5028178;28;20052;-68
2022/03/01 01:00:41;;;;;;;8.43;5.70;;;;;;;;;;5014451;28;20041;-69
2022/03/01 01:03:09;;;;;;;6.68;4.10;;;;;;;;;;5029187;28;20049;-69
2022/03/01 01:05:36;;;;;;;11.07;6.15;;;;;;;;;;5027675;28;20133;-69
2022/03/01 01:08:04;;;;;;;6.82;4.70;;;;;;;;;;5028260;28;20395;-69
2022/03/01 01:10:31;;;;;;;12.98;7.25;;;;;;;;;;5027141;28;20546;-68
2022/03/01 01:12:58;;;;;;;10.85;6.95;;;;;;;;;;5024883;28;20042;-69
2022/03/01 01:15:26;;;;;;;9.40;4.30;;;;;;;;;;5024120;28;20037;-67
2022/03/01 01:17:53;;;;;;;8.13;4.10;;;;;;;;;;5028120;28;20337;-69
2022/03/01 01:20:20;;;;;;;13.27;6.95;;;;;;;;;;5029165;28;20045;-70
2022/03/01 01:22:48;;;;;;;11.82;6.55;;;;;;;;;;5028077;28;20037;-68
2022/03/01 01:25:20;;;;;;;13.07;7.50;;;;;;;;;;5029094;28;20046;-69
2022/03/01 01:27:49;;;;;;;12.90;8.40;;;;;;;;;;5007742;28;20681;-68
2022/03/01 01:30:19;;;;;;;12.32;7.45;;;;;;;;;;5016267;28;20405;-69
2022/03/01 01:32:49;;;;;;;7.43;5.70;;;;;;;;;;5027105;28;20589;-69
2022/03/01 01:35:19;;;;;;;8.05;5.53;;;;;;;;;;5029202;28;20049;-69
2022/03/01 01:37:46;;;;;;;8.27;5.60;;;;;;;;;;5028204;28;20077;-69
2022/03/01 01:40:15;;;;;;;6.10;4.50;;;;;;;;;;5028229;28;20127;-68
2022/03/01 01:42:43;;;;;;;6.70;3.88;;;;;;;;;;5028760;28;20124;-69
2022/03/01 01:45:11;;;;;;;7.25;3.25;;;;;;;;;;5027484;28;20055;-67
2022/03/01 01:47:46;;;;;;;10.88;6.57;;;;;;;;;;5025559;28;20046;-69
2022/03/01 01:50:13;;;;;;;10.98;6.30;;;;;;;;;;5016843;28;20038;-68
2022/03/01 01:52:41;;;;;;;8.80;5.57;;;;;;;;;;5027698;28;20582;-69
2022/03/01 01:55:08;;;;;;;10.02;6.80;;;;;;;;;;5018304;28;20140;-69
2022/03/01 01:57:36;;;;;;;9.77;4.85;;;;;;;;;;5012072;28;20046;-67
2022/03/01 02:00:04;;;;;;;8.18;5.70;;;;;;;;;;5013268;28;20048;-68
2022/03/01 02:02:38;;;;;;;6.82;4.47;;;;;;;;;;5020820;28;20084;-67
2022/03/01 02:05:07;;;;;;;3.92;2.85;;;;;;;;;;5017779;28;20046;-67
2022/03/01 02:07:35;;;;;;;3.67;3.28;;;;;;;;;;5013475;28;20042;-69
2022/03/01 02:10:03;;;;;;;10.85;4.85;;;;;;;;;;5007689;28;20617;-68
2022/03/01 02:12:30;;;;;;;7.60;5.63;;;;;;;;;;5005557;28;20125;-69
2022/03/01 02:14:57;;;;;;;11.40;6.82;;;;;;;;;;5015520;28;20041;-69
2022/03/01 02:17:29;;;;;;;9.00;5.60;;;;;;;;;;5009982;28;20108;-68
2022/03/01 02:19:57;;;;;;;7.05;5.43;;;;;;;;;;5008848;28;20052;-67
2022/03/01 02:22:32;;;;;;;4.00;2.50;;;;;;;;;;5006122;28;20080;-69
2022/03/01 02:25:00;;;;;;;8.77;5.90;;;;;;;;;;5014014;28;20582;-67
2022/03/01 02:27:30;;;;;;;7.78;5.55;;;;;;;;;;5022081;28;20081;-69
2022/03/01 02:29:57;;;;;;;3.22;2.58;;;;;;;;;;5025313;28;20044;-67
2022/03/01 02:32:25;;;;;;;7.72;4.93;;;;;;;;;;5026964;28;20052;-69
2022/03/01 02:34:52;;;;;;;9.98;6.63;;;;;;;;;;5024979;28;20044;-68
2022/03/01 02:37:19;;;;;;;6.00;4.38;;;;;;;;;;5026498;28;20443;-69
2022/03/01 02:39:47;;;;;;;10.98;6.22;;;;;;;;;;5024589;28;20065;-68
2022/03/01 02:42:14;;;;;;;7.13;3.85;;;;;;;;;;5025781;28;20467;-67
2022/03/01 02:44:41;;;;;;;4.57;3.60;;;;;;;;;;5023703;28;20044;-68
2022/03/01 02:47:09;;;;;;;7.80;4.75;;;;;;;;;;5013985;28;20121;-68
2022/03/01 02:49:38;;;;;;;7.28;4.97;;;;;;;;;;5013995;28;20044;-69
2022/03/01 02:52:06;;;;;;;2.35;2.15;;;;;;;;;;5009524;28;20037;-69
2022/03/01 02:54:33;;;;;;;8.60;5.60;;;;;;;;;;5020690;28;20123;-68
2022/03/01 02:57:02;;;;;;;6.18;4.22;;;;;;;;;;5020891;28;20050;-68
2022/03/01 02:59:29;;;;;;;6.03;3.88;;;;;;;;;;5021621;28;20068;-68
2022/03/01 03:01:57;;;;;;;4.78;3.53;;;;;;;;;;5055330;22;20049;-67
2022/03/01 03:04:25;;;;;;;7.35;3.50;;;;;;;;;;5043377;28;20077;-67
2022/03/01 03:06:53;;;;;;;5.13;3.45;;;;;;;;;;5040849;28;20045;-68
2022/03/01 03:09:21;;;;;;;4.75;3.50;;;;;;;;;;5037504;28;20029;-67
2022/03/01 03:11:49;;;;;;;5.57;4.13;;;;;;;;;;5030102;28;20052;-68
2022/03/01 03:14:16;;;;;;;8.40;5.85;;;;;;;;;;5036555;28;20048;-67
2022/03/01 03:16:45;;;;;;;8.63;3.28;;;;;;;;;;5045680;28;20045;-67
2022/03/01 03:19:15;;;;;;;8.95;6.15;;;;;;;;;;5042416;28;20033;-66
2022/03/01 03:21:46;;;;;;;8.40;3.78;;;;;;;;;;5038743;28;20159;-68
2022/03/01 03:24:13;;;;;;;5.05;2.88;;;;;;;;;;5050626;28;20059;-68
2022/03/01 03:26:42;;;;;;;6.07;3.78;;;;;;;;;;5048692;28;20037;-67
2022/03/01 03:29:09;;;;;;;5.13;3.97;;;;;;;;;;5049797;28;20048;-68
2022/03/01 03:31:37;;;;;;;7.95;5.55;;;;;;;;;;5048899;28;20118;-67
2022/03/01 03:34:06;;;;;;;6.43;4.60;;;;;;;;;;5043322;28;20029;-67
2022/03/01 03:36:34;;;;;;;7.32;5.50;;;;;;;;;;5046703;28;20406;-65
2022/03/01 03:39:02;;;;;;;8.32;6.13;;;;;;;;;;5042566;28;20056;-66
2022/03/01 03:41:29;;;;;;;11.35;7.40;;;;;;;;;;5049026;28;20413;-67
2022/03/01 03:43:56;;;;;;;9.55;6.22;;;;;;;;;;5049908;28;20099;-68
2022/03/01 03:46:24;;;;;;;11.60;6.55;;;;;;;;;;5046534;28;20075;-67
2022/03/01 03:48:53;;;;;;;7.70;5.38;;;;;;;;;;5031621;28;20043;-68
2022/03/01 03:51:20;;;;;;;8.93;5.88;;;;;;;;;;5035776;28;20200;-68
2022/03/01 03:53:48;;;;;;;10.55;7.10;;;;;;;;;;5047475;28;20073;-68
2022/03/01 03:56:15;;;;;;;15.07;8.70;;;;;;;;;;5047243;28;20432;-68
2022/03/01 03:58:43;;;;;;;8.57;5.70;;;;;;;;;;5049232;28;20506;-67
2022/03/01 04:01:10;;;;;;;13.73;7.45;;;;;;;;;;5045018;28;20438;-68
2022/03/01 04:03:38;;;;;;;9.13;5.82;;;;;;;;;;5047216;28;20044;-68
2022/03/01 04:06:06;;;;;;;10.95;6.47;;;;;;;;;;5035325;28;20034;-68
2022/03/01 04:08:34;;;;;;;10.55;6.82;;;;;;;;;;5046258;28;20140;-68
2022/03/01 04:11:01;;;;;;;8.80;5.70;;;;;;;;;;5047178;28;20540;-68
2022/03/01 04:13:29;;;;;;;6.13;4.68;;;;;;;;;;5049463;28;20041;-68
2022/03/01 04:15:56;;;;;;;5.60;3.45;;;;;;;;;;5048017;28;20041;-68
2022/03/01 04:18:23;;;;;;;3.30;2.35;;;;;;;;;;5048854;28;20310;-68
2022/03/01 04:20:50;;;;;;;4.97;3.10;;;;;;;;;;5049205;28;20048;-68
2022/03/01 04:23:18;;;;;;;5.72;3.25;;;;;;;;;;5044661;28;20053;-68
2022/03/01 04:25:46;;;;;;;6.78;3.53;;;;;;;;;;5041100;28;20055;-68
2022/03/01 04:28:13;;;;;;;9.07;5.25;;;;;;;;;;5047514;28;20037;-68
2022/03/01 04:30:40;;;;;;;7.60;4.72;;;;;;;;;;5050439;28;20129;-68
2022/03/01 04:33:08;;;;;;;4.95;4.30;;;;;;;;;;5028717;28;20041;-68
2022/03/01 04:35:35;;;;;;;8.27;4.78;;;;;;;;;;5036626;28;20108;-68
2022/03/01 04:38:03;;;;;;;4.72;2.97;;;;;;;;;;5044198;28;20091;-67
2022/03/01 04:40:30;;;;;;;4.82;3.17;;;;;;;;;;5047741;28;20033;-68
2022/03/01 04:42:58;;;;;;;6.55;4.03;;;;;;;;;;5048320;28;20563;-68
2022/03/01 04:45:25;;;;;;;7.03;5.43;;;;;;;;;;5046432;28;20559;-68
2022/03/01 04:47:53;;;;;;;3.03;2.45;;;;;;;;;;5045947;28;20120;-68
2022/03/01 04:50:20;;;;;;;6.43;4.10;;;;;;;;;;5037087;28;20049;-68
2022/03/01 04:52:47;;;;;;;4.65;3.65;;;;;;;;;;5038896;28;20041;-68
2022/03/01 04:55:15;;;;;;;9.23;5.47;;;;;;;;;;5033384;28;20079;-67
2022/03/01 04:57:43;;;;;;;3.95;3.17;;;;;;;;;;5047582;28;20043;-67
2022/03/01 05:00:11;;;;;;;6.97;4.15;;;;;;;;;;5047099;28;20140;-66
2022/03/01 05:02:43;;;;;;;9.13;5.25;;;;;;;;;;5037728;28;20137;-66
2022/03/01 05:05:11;;;;;;;8.18;5.80;;;;;;;;;;5056783;28;20045;-67
2022/03/01 05:07:39;;;;;;;5.90;3.55;;;;;;;;;;5039204;28;20033;-67
2022/03/01 05:10:07;;;;;;;10.18;6.90;;;;;;;;;;5047028;28;20378;-66
2022/03/01 05:12:45;;;;;;;10.73;6.35;;;;;;;;;;5042999;28;20467;-66
2022/03/01 05:15:12;;;;;;;7.80;6.20;;;;;;;;;;5036492;28;20099;-67
2022/03/01 05:17:40;;;;;;;6.30;4.18;;;;;;;;;;5047304;28;20041;-67
2022/03/01 05:20:08;;;;;;;10.32;7.68;;;;;;;;;;5047529;28;20159;-67
2022/03/01 05:22:36;;;;;;;6.45;4.70;;;;;;;;;;5036436;28;20132;-67
2022/03/01 05:25:04;;;;;;;11.98;7.53;;;;;;;;;;5032610;28;20627;-68
2022/03/01 05:27:32;;;;;;;7.20;4.18;;;;;;;;;;5031214;28;20129;-68
2022/03/01 05:29:59;;;;;;;6.78;4.63;;;;;;;;;;5028342;28;20034;-67
2022/03/01 05:32:27;;;;;;;12.95;6.32;;;;;;;;;;5035571;28;20121;-66
2022/03/01 05:34:54;;;;;;;8.85;5.63;;;;;;;;;;5035172;28;20132;-67
2022/03/01 05:37:21;;;;;;;4.60;3.92;;;;;;;;;;5046759;28;20053;-68
2022/03/01 05:39:49;;;;;;;6.07;4.25;;;;;;;;;;5047760;28;20064;-67
2022/03/01 05:42:16;;;;;;;7.95;4.00;;;;;;;;;;5037061;28;20309;-67
2022/03/01 05:44:43;;;;;;;4.22;3.17;;;;;;;;;;5028804;28;20045;-67
2022/03/01 05:47:11;;;;;;;3.17;2.97;;;;;;;;;;5044418;28;20037;-68
2022/03/01 05:49:38;;;;;;;8.48;5.50;;;;;;;;;;5027867;28;20048;-68
2022/03/01 05:52:06;;;;;;;3.97;3.28;;;;;;;;;;5039921;28;20037;-66
2022/03/01 05:54:33;;;;;;;6.63;4.85;;;;;;;;;;5033593;28;20337;-68
2022/03/01 05:57:01;;;;;;;12.15;6.40;;;;;;;;;;5042344;28;20053;-68
2022/03/01 05:59:28;;;;;;;8.45;6.20;;;;;;;;;;5038951;28;20041;-67
2022/03/01 06:01:56;;;;;;;11.38;6.60;;;;;;;;;;5037921;28;20497;-68
2022/03/01 06:04:23;;;;;;;12.35;7.68;;;;;;;;;;5043761;28;20094;-68
2022/03/01 06:06:51;;;;;;;8.23;6.22;;;;;;;;;;5044398;28;20068;-66
2022/03/01 06:09:18;;;;;;;13.15;7.43;;;;;;;;;;5044842;28;20461;-67
2022/03/01 06:11:45;;;;;;;7.97;4.78;;;;;;;;;;5036321;28;20577;-68
2022/03/01 06:14:13;;;;;;;5.32;3.88;;;;;;;;;;5026954;28;20038;-67
2022/03/01 06:16:40;;;;;;;7.72;5.75;;;;;;;;;;5040972;28;20162;-67
2022/03/01 06:19:08;;;;;;;11.88;4.75;;;;;;;;;;5031130;28;20052;-67
2022/03/01 06:21:35;;;;;;;5.93;4.50;;;;;;;;;;5035389;28;20049;-70
2022/03/01 06:24:04;;;;;;;9.50;5.97;;;;;;;;;;5035708;28;20055;-67
2022/03/01 06:26:31;;;;;;;13.48;8.00;;;;;;;;;;5033978;28;20037;-68
2022/03/01 06:28:59;;;;;;;17.50;8.85;;;;;;;;;;5037096;28;20033;-68
2022/03/01 06:31:26;;;;;;;8.10;5.05;;;;;;;;;;5042128;28;20051;-68
2022/03/01 06:33:55;;;;;;;11.75;6.38;;;;;;;;;;5044179;28;20044;-68
2022/03/01 06:36:23;;;;;;;5.38;3.75;;;;;;;;;;5030846;28;20044;-68
2022/03/01 06:38:51;;;;;;;12.57;8.85;;;;;;;;;;5036653;28;20041;-66
2022/03/01 06:41:18;;;;;;;11.95;7.38;;;;;;;;;;5032298;28;20045;-68
2022/03/01 06:43:45;;;;;;;10.75;6.15;;;;;;;;;;5045082;28;20052;-68
2022/03/01 06:46:13;;;;;;;7.82;5.10;;;;;;;;;;5036361;28;20515;-68
2022/03/01 06:48:43;;;;;;;10.80;7.63;;;;;;;;;;5028616;28;20048;-68
2022/03/01 06:51:11;;;;;;;10.15;5.63;;;;;;;;;;5036090;28;20073;-67
2022/03/01 06:53:39;;;;;;;6.30;3.97;;;;;;;;;;5034720;28;21297;-68
2022/03/01 06:56:06;;;;;;;8.15;6.07;;;;;;;;;;5035054;28;20034;-68
2022/03/01 06:58:33;;;;;;;11.75;6.20;;;;;;;;;;5039240;28;20132;-67
2022/03/01 07:01:02;;;;;;;13.13;7.00;;;;;;;;;;5033885;28;20094;-67
2022/03/01 07:03:30;;;;;;;9.20;6.50;;;;;;;;;;5034336;28;20037;-67
2022/03/01 07:05:57;;;;;;;8.90;6.18;;;;;;;;;;5038723;28;20045;-67
2022/03/01 07:08:25;;;;;;;13.02;9.75;;;;;;;;;;5040826;28;20037;-68
2022/03/01 07:10:53;;;;;;;16.73;14.57;;;;;;;;;;5038134;28;20135;-67
2022/03/01 07:13:20;;;;;;;17.35;11.57;;;;;;;;;;5037323;28;20089;-67
2022/03/01 07:15:48;;;;;;;14.85;11.65;;;;;;;;;;5032783;28;20125;-67
2022/03/01 07:18:15;;;;;;;17.83;10.48;;;;;;;;;;5035238;28;20037;-67
2022/03/01 07:20:45;;;;;;;13.93;9.48;;;;;;;;;;5036695;28;20041;-67
2022/03/01 07:23:13;;;;;;;18.25;11.07;;;;;;;;;;5038251;28;20524;-67
2022/03/01 07:25:41;;;;;;;12.05;9.20;;;;;;;;;;5032704;28;20052;-67
2022/03/01 07:28:08;;;;;;;15.77;9.70;;;;;;;;;;5034595;28;20076;-67
2022/03/01 07:30:37;;;;;;;12.38;7.90;;;;;;;;;;5036132;28;20430;-68
2022/03/01 07:33:04;;;;;;;13.45;5.47;;;;;;;;;;5030793;28;20049;-67
2022/03/01 07:35:32;;;;;;;17.17;10.93;;;;;;;;;;5036258;28;20034;-66
2022/03/01 07:37:59;;;;;;;13.35;9.82;;;;;;;;;;5039495;28;20123;-68
2022/03/01 07:40:27;;;;;;;6.90;5.32;;;;;;;;;;5034537;28;20132;-67
2022/03/01 07:42:55;;;;;;;7.20;4.80;;;;;;;;;;5042095;28;20080;-68
2022/03/01 07:45:22;;;;;;;4.55;4.15;;;;;;;;;;5035134;28;20122;-68
2022/03/01 07:47:50;;;;;;;4.38;3.97;;;;;;;;;;5034417;28;20045;-67
2022/03/01 07:50:18;;;;;;;13.82;7.30;;;;;;;;;;5039053;28;20392;-67
2022/03/01 07:52:47;;;;;;;8.23;5.38;;;;;;;;;;5042490;28;20102;-67
2022/03/01 07:55:14;;;;;;;9.75;6.13;;;;;;;;;;5036754;28;20045;-67
2022/03/01 07:57:42;;;;;;;8.95;6.05;;;;;;;;;;5033103;28;20071;-67
2022/03/01 08:00:11;;;;;;;8.38;5.63;;;;;;;;;;5036871;28;20149;-67
2022/03/01 08:02:40;;;;;;;6.45;5.18;;;;;;;;;;5039963;28;20049;-67
2022/03/01 08:05:09;;;;;;;8.02;5.95;;;;;;;;;;5040240;28;20115;-66
2022/03/01 08:07:48;;;;;;;10.10;6.47;;;;;;;;;;5034158;28;20166;-67
2022/03/01 08:10:16;;;;;;;7.20;5.60;;;;;;;;;;5045138;28;20853;-67
2022/03/01 08:12:43;;;;;;;8.95;6.25;;;;;;;;;;5041040;28;20045;-67
2022/03/01 08:15:11;;;;;;;27.27;5.85;;;;;;;;;;5038802;28;20040;-68
2022/03/01 08:17:46;;;;;;;9.45;5.70;;;;;;;;;;5038762;28;20491;-67
2022/03/01 08:20:14;;;;;;;8.95;5.78;;;;;;;;;;5036086;28;20046;-67
2022/03/01 08:22:41;;;;;;;7.93;5.10;;;;;;;;;;5039390;28;20055;-67
2022/03/01 08:25:08;;;;;;;6.90;4.35;;;;;;;;;;5038156;28;20044;-67
2022/03/01 08:27:36;;;;;;;8.00;4.72;;;;;;;;;;5037738;28;20072;-67
2022/03/01 08:30:05;;;;;;;7.00;5.40;;;;;;;;;;5038042;28;20087;-67
2022/03/01 08:32:34;;;;;;;8.13;5.35;;;;;;;;;;5037726;28;20037;-66
2022/03/01 08:35:01;;;;;;;6.10;4.63;;;;;;;;;;5036721;28;20037;-68
2022/03/01 08:37:29;;;;;;;5.15;3.58;;;;;;;;;;5037057;28;20417;-68
2022/03/01 08:39:58;;;;;;;7.28;5.03;;;;;;;;;;5038538;28;20441;-67
2022/03/01 08:42:26;;;;;;;4.28;3.58;;;;;;;;;;5042122;28;20039;-68
2022/03/01 08:44:53;;;;;;;8.60;4.43;;;;;;;;;;5038220;28;20106;-67
2022/03/01 08:47:21;;;;;;;5.07;3.90;;;;;;;;;;5037374;28;20099;-68
2022/03/01 08:49:48;;;;;;;7.05;4.25;;;;;;;;;;5030772;28;20502;-67
2022/03/01 08:52:17;;;;;;;6.53;4.60;;;;;;;;;;5028426;28;20043;-68
2022/03/01 08:54:44;;;;;;;6.50;4.50;;;;;;;;;;5024731;28;20100;-68
2022/03/01 08:57:11;;;;;;;5.43;4.13;;;;;;;;;;5027268;28;20040;-68
2022/03/01 08:59:39;;;;;;;8.57;6.65;;;;;;;;;;5033042;28;20045;-68
2022/03/01 09:02:06;;;;;;;8.35;3.92;;;;;;;;;;5060555;22;20513;-66
2022/03/01 09:04:34;;;;;;;6.32;3.97;;;;;;;;;;5044834;28;20061;-67
2022/03/01 09:07:03;;;;;;;3.13;2.05;;;;;;;;;;5030031;28;20510;-66
2022/03/01 09:09:32;;;;;;;3.90;3.35;;;;;;;;;;5016650;28;20451;-66
2022/03/01 09:12:00;;;;;;;11.63;4.28;;;;;;;;;;5028695;28;20041;-66
2022/03/01 09:14:28;;;;;;;4.20;3.53;;;;;;;;;;5024847;28;20453;-65
2022/03/01 09:16:55;;;;;;;3.95;3.47;;;;;;;;;;5013159;28;20118;-67
2022/03/01 09:19:23;;;;;;;5.43;3.85;;;;;;;;;;5025479;28;20092;-67
2022/03/01 09:21:50;;;;;;;4.40;3.08;;;;;;;;;;5027239;28;20053;-67
2022/03/01 09:24:18;;;;;;;5.10;3.67;;;;;;;;;;5030966;28;20395;-68
2022/03/01 09:26:47;;;;;;;3.72;3.28;;;;;;;;;;5039105;28;20040;-68
2022/03/01 09:29:18;;;;;;;7.18;3.60;;;;;;;;;;5037239;28;20298;-68
2022/03/01 09:31:46;;;;;;;4.65;3.50;;;;;;;;;;5039662;28;20041;-68
2022/03/01 09:34:13;;;;;;;4.30;3.13;;;;;;;;;;5039039;28;20037;-67
2022/03/01 09:36:41;;;;;;;3.97;3.47;;;;;;;;;;5035503;28;20048;-67
2022/03/01 09:39:09;;;;;;;3.92;3.53;;;;;;;;;;5031551;28;20136;-69
2022/03/01 09:41:37;;;;;;;3.80;3.50;;;;;;;;;;5034133;28;20111;-69
2022/03/01 09:44:05;;;;;;;6.00;3.78;;;;;;;;;;5026954;28;20497;-67
2022/03/01 09:46:34;;;;;;;3.65;3.35;;;;;;;;;;5020505;28;20502;-68
2022/03/01 09:49:04;;;;;;;3.22;2.45;;;;;;;;;;5033783;28;20042;-67
2022/03/01 09:51:36;;;;;;;2.97;2.65;;;;;;;;;;5035495;28;20499;-68
2022/03/01 09:54:04;;;;;;;7.57;3.42;;;;;;;;;;5030567;28;20056;-68
2022/03/01 09:56:32;;;;;;;3.13;2.78;;;;;;;;;;5016405;28;20037;-67
2022/03/01 09:59:00;;;;;;;2.60;2.40;;;;;;;;;;5031654;28;20069;-67
2022/03/01 10:01:28;;;;;;;3.45;3.00;;;;;;;;;;5036805;28;20136;-67
2022/03/01 10:04:06;;;;;;;3.17;2.40;;;;;;;;;;5010841;28;20552;-68
2022/03/01 10:06:39;;;;;;;3.35;2.80;;;;;;;;;;5034171;28;20086;-67
2022/03/01 10:09:21;;;;;;;2.50;2.30;;;;;;;;;;5033430;28;20052;-67
2022/03/01 10:11:49;;;;;;;3.10;2.80;;;;;;;;;;5017675;28;20091;-67
2022/03/01 10:14:27;;;;;;;2.22;1.92;;;;;;;;;;5023615;28;20336;-66
2022/03/01 10:16:55;;;;;;;3.97;2.55;;;;;;;;;;5017374;28;20195;-67
2022/03/01 10:19:23;;;;;;;2.58;2.15;;;;;;;;;;5013683;28;20534;-67
2022/03/01 10:21:57;;;;;;;4.13;1.95;;;;;;;;;;5022010;28;20049;-68
2022/03/01 10:24:24;;;;;;;2.45;1.88;;;;;;;;;;5042065;28;20064;-67
2022/03/01 10:26:55;;;;;;;4.43;2.63;;;;;;;;;;5036737;28;20153;-68
2022/03/01 10:29:42;;;;;;;2.22;2.08;;;;;;;;;;5048096;28;20044;-67
2022/03/01 10:32:11;;;;;;;3.13;2.83;;;;;;;;;;5034097;28;20037;-68
2022/03/01 10:34:39;;;;;;;3.85;2.80;;;;;;;;;;5024289;28;20038;-67
2022/03/01 10:37:06;;;;;;;1.70;1.60;;;;;;;;;;5031521;28;20487;-67
2022/03/01 10:39:34;;;;;;;2.88;2.67;;;;;;;;;;5047759;28;20571;-68
2022/03/01 10:42:08;;;;;;;4.32;2.88;;;;;;;;;;5020945;28;20570;-67
2022/03/01 10:44:36;;;;;;;3.70;3.13;;;;;;;;;;5034185;28;20132;-66
2022/03/01 10:47:04;;;;;;;2.28;2.00;;;;;;;;;;5043648;28;20053;-68
2022/03/01 10:49:33;;;;;;;3.22;2.42;;;;;;;;;;5043190;28;20376;-67
2022/03/01 10:52:08;;;;;;;4.80;3.03;;;;;;;;;;5000055;28;20069;-68
2022/03/01 10:54:40;;;;;;;3.08;2.15;;;;;;;;;;5025644;28;20040;-66
2022/03/01 10:57:10;;;;;;;2.80;2.47;;;;;;;;;;5029968;28;20099;-67
2022/03/01 10:59:38;;;;;;;3.45;2.38;;;;;;;;;;5019897;28;20125;-67
2022/03/01 11:02:06;;;;;;;5.88;3.47;;;;;;;;;;5010888;28;20136;-66
2022/03/01 11:04:34;;;;;;;2.08;1.90;;;;;;;;;;5041383;28;20033;-67
2022/03/01 11:07:03;;;;;;;3.38;2.95;;;;;;;;;;5040238;28;20449;-67
2022/03/01 11:09:31;;;;;;;2.70;2.10;;;;;;;;;;5026653;28;20406;-66
2022/03/01 11:11:59;;;;;;;3.33;2.75;;;;;;;;;;5028954;28;20047;-66
2022/03/01 11:14:50;;;;;;;6.43;2.35;;;;;;;;;;5043597;28;20122;-67
2022/03/01 11:17:38;;;;;;;1.67;1.58;;;;;;;;;;5031061;28;20048;-68
2022/03/01 11:20:07;;;;;;;2.20;2.05;;;;;;;;;;5027937;28;20139;-67
2022/03/01 11:22:45;;;;;;;3.67;3.17;;;;;;;;;;5036674;28;20037;-68
2022/03/01 11:25:18;;;;;;;2.60;2.13;;;;;;;;;;5033686;28;20045;-67
2022/03/01 11:27:48;;;;;;;3.17;2.65;;;;;;;;;;5034265;28;20072;-67
2022/03/01 11:30:17;;;;;;;2.95;2.50;;;;;;;;;;5036404;28;20275;-69
2022/03/01 11:32:46;;;;;;;4.75;2.45;;;;;;;;;;5023596;28;20128;-68
2022/03/01 11:35:18;;;;;;;2.78;2.15;;;;;;;;;;5030057;28;20061;-67
2022/03/01 11:37:46;;;;;;;2.70;2.50;;;;;;;;;;5043816;28;20106;-68
2022/03/01 11:40:24;;;;;;;5.97;2.05;;;;;;;;;;5032626;28;20041;-66
2022/03/01 11:42:51;;;;;;;2.58;1.80;;;;;;;;;;5023403;28;20044;-67
2022/03/01 11:45:32;;;;;;;2.20;2.00;;;;;;;;;;5046109;28;20421;-65
2022/03/01 11:48:04;;;;;;;4.63;3.08;;;;;;;;;;5024741;28;20057;-68
2022/03/01 11:50:32;;;;;;;2.25;1.67;;;;;;;;;;5022942;28;20041;-66
2022/03/01 11:53:05;;;;;;;3.22;2.70;;;;;;;;;;5026557;28;20048;-67
2022/03/01 11:55:34;;;;;;;4.13;2.88;;;;;;;;;;5021632;28;20713;-68
2022/03/01 11:58:02;;;;;;;3.00;2.78;;;;;;;;;;5018803;28;20090;-67
2022/03/01 12:00:33;;;;;;;3.20;2.90;;;;;;;;;;5022498;28;20049;-66
2022/03/01 12:03:01;;;;;;;3.03;2.83;;;;;;;;;;5015418;28;20148;-67
2022/03/01 12:05:29;;;;;;;3.20;2.90;;;;;;;;;;5015675;28;20046;-67
2022/03/01 12:07:56;;;;;;;4.45;2.58;;;;;;;;;;5019753;28;20049;-68
2022/03/01 12:10:54;;;;;;;4.78;3.53;;;;;;;;;;5002917;28;20060;-68
2022/03/01 12:13:22;;;;;;;3.50;2.80;;;;;;;;;;5013052;28;20763;-68
2022/03/01 12:15:56;;;;;;;3.35;3.05;;;;;;;;;;5011099;28;20191;-67
2022/03/01 12:18:28;;;;;;;1.90;1.75;;;;;;;;;;5004161;28;20556;-67
2022/03/01 12:21:00;;;;;;;4.18;2.95;;;;;;;;;;5019491;28;20042;-68
2022/03/01 12:23:32;;;;;;;3.78;3.25;;;;;;;;;;5007591;28;20283;-68
2022/03/01 12:26:01;;;;;;;5.57;3.45;;;;;;;;;;4982317;28;20041;-67
2022/03/01 12:28:32;;;;;;;3.17;2.05;;;;;;;;;;5009174;28;20037;-67
2022/03/01 12:31:05;;;;;;;2.92;2.33;;;;;;;;;;5006288;28;20042;-67
2022/03/01 12:33:33;;;;;;;8.15;3.55;;;;;;;;;;5008566;28;20160;-66
2022/03/01 12:36:03;;;;;;;4.57;3.83;;;;;;;;;;5004994;28;20076;-67
2022/03/01 12:38:32;;;;;;;5.75;3.10;;;;;;;;;;4980929;28;20049;-68
2022/03/01 12:41:11;;;;;;;5.10;3.20;;;;;;;;;;5011014;28;20410;-68
2022/03/01 12:43:38;;;;;;;3.85;3.55;;;;;;;;;;5003170;28;20361;-68
2022/03/01 12:46:06;;;;;;;3.45;3.03;;;;;;;;;;4991988;28;20041;-68
2022/03/01 12:48:42;;;;;;;5.30;3.80;;;;;;;;;;5007868;28;20333;-66
2022/03/01 12:51:09;;;;;;;4.22;3.80;;;;;;;;;;5009925;28;20293;-67
2022/03/01 12:53:37;;;;;;;4.30;3.90;;;;;;;;;;4980284;28;20042;-67
2022/03/01 12:56:05;;;;;;;3.00;2.70;;;;;;;;;;4993997;28;20185;-66
2022/03/01 12:58:34;;;;;;;4.00;3.45;;;;;;;;;;5008934;28;20541;-68
2022/03/01 13:01:08;;;;;;;4.53;3.15;;;;;;;;;;4998339;28;20876;-66
2022/03/01 13:03:36;;;;;;;2.35;2.08;;;;;;;;;;5007156;28;20064;-66
2022/03/01 13:06:04;;;;;;;4.55;3.67;;;;;;;;;;5009896;28;20114;-66
2022/03/01 13:08:33;;;;;;;7.35;4.20;;;;;;;;;;4998880;28;20041;-66
2022/03/01 13:11:01;;;;;;;3.47;3.17;;;;;;;;;;4995383;28;20569;-67
2022/03/01 13:13:28;;;;;;;3.78;3.40;;;;;;;;;;5005152;28;20049;-67
2022/03/01 13:16:02;;;;;;;3.58;3.25;;;;;;;;;;5010517;28;20045;-67
2022/03/01 13:18:30;;;;;;;6.82;2.78;;;;;;;;;;4989426;28;20496;-66
2022/03/01 13:20:57;;;;;;;4.43;2.63;;;;;;;;;;5007948;28;20041;-67
2022/03/01 13:23:32;;;;;;;4.00;3.00;;;;;;;;;;5013479;28;20037;-67
2022/03/01 13:26:01;;;;;;;4.28;3.65;;;;;;;;;;5002351;28;20144;-67
2022/03/01 13:28:38;;;;;;;3.30;2.53;;;;;;;;;;5009647;28;20878;-67
2022/03/01 13:31:06;;;;;;;3.80;3.42;;;;;;;;;;4993129;28;20529;-68
2022/03/01 13:33:34;;;;;;;4.88;3.10;;;;;;;;;;4997325;28;20050;-66
2022/03/01 13:36:12;;;;;;;6.53;3.28;;;;;;;;;;5011062;28;20530;-67
2022/03/01 13:38:39;;;;;;;5.82;4.38;;;;;;;;;;5020652;28;20464;-68
2022/03/01 13:41:07;;;;;;;5.43;3.25;;;;;;;;;;5011519;28;20143;-68
2022/03/01 13:43:35;;;;;;;3.55;3.22;;;;;;;;;;5027537;28;20099;-67
2022/03/01 13:46:04;;;;;;;5.97;4.00;;;;;;;;;;5022362;28;20072;-67
2022/03/01 13:48:33;;;;;;;5.70;3.78;;;;;;;;;;5020097;28;20080;-66
2022/03/01 13:51:10;;;;;;;14.38;4.18;;;;;;;;;;5022115;28;20745;-66
2022/03/01 13:53:38;;;;;;;5.90;3.53;;;;;;;;;;5020164;28;20033;-66
2022/03/01 13:56:06;;;;;;;5.47;4.03;;;;;;;;;;5022342;28;20124;-66
2022/03/01 13:58:36;;;;;;;2.85;2.60;;;;;;;;;;5020232;28;20049;-68
2022/03/01 14:01:06;;;;;;;6.28;3.22;;;;;;;;;;5023067;28;20422;-68
2022/03/01 14:03:35;;;;;;;2.17;2.08;;;;;;;;;;5024339;28;20400;-68
2022/03/01 14:06:05;;;;;;;5.35;4.40;;;;;;;;;;4995029;28;20495;-67
2022/03/01 14:08:33;;;;;;;6.63;4.63;;;;;;;;;;5024393;28;20976;-68
2022/03/01 14:11:27;;;;;;;5.15;4.65;;;;;;;;;;5021067;28;20469;-68
2022/03/01 14:13:54;;;;;;;6.93;4.53;;;;;;;;;;5021429;28;20514;-66
2022/03/01 14:16:26;;;;;;;6.15;4.80;;;;;;;;;;5020145;28;20521;-68
2022/03/01 14:19:01;;;;;;;4.15;3.65;;;;;;;;;;5022569;28;20486;-68
2022/03/01 14:21:29;;;;;;;2.90;2.00;;;;;;;;;;5020548;28;20041;-66
2022/03/01 14:23:57;;;;;;;2.95;2.65;;;;;;;;;;5021798;28;20310;-68
2022/03/01 14:26:25;;;;;;;4.60;3.13;;;;;;;;;;5019184;28;20073;-68
2022/03/01 14:28:55;;;;;;;7.95;3.47;;;;;;;;;;5023899;28;20041;-67
2022/03/01 14:31:23;;;;;;;5.22;4.32;;;;;;;;;;5018005;28;20049;-67
2022/03/01 14:33:51;;;;;;;4.80;4.20;;;;;;;;;;5018553;28;20049;-68
2022/03/01 14:36:19;;;;;;;4.30;3.80;;;;;;;;;;5022298;28;20137;-68
2022/03/01 14:38:46;;;;;;;4.75;4.15;;;;;;;;;;5025216;28;20071;-67
2022/03/01 14:41:14;;;;;;;5.75;3.85;;;;;;;;;;5022330;28;20108;-64
2022/03/01 14:43:42;;;;;;;6.18;4.60;;;;;;;;;;5029802;28;20041;-65
2022/03/01 14:46:09;;;;;;;5.38;4.22;;;;;;;;;;5026963;28;20079;-65
2022/03/01 14:48:37;;;;;;;2.28;2.08;;;;;;;;;;5031558;28;20075;-66
2022/03/01 14:51:04;;;;;;;6.32;4.05;;;;;;;;;;5033032;28;20045;-66